sensor_id;sensor_type;location;lat;lon;timestamp;P1;durP1;ratioP1;P2;durP2;ratioP2
7501;SDS011;3792;47.740;7.606;2023-02-01T00:02:21;8.70;;;5.33;;
7501;SDS011;3792;47.740;7.606;2023-02-01T00:04:48;8.27;;;5.73;;
7501;SDS011;3792;47.740;7.606;2023-02-01T00:07:15;7.17;;;5.33;;
7501;SDS011;3792;47.740;7.606;2023-02-01T00:09:42;6.27;;;5.43;;
7501;SDS011;3792;47.740;7.606;2023-02-01T00:12:09;5.97;;;5.10;;
7501;SDS011;3792;47.740;7.606;2023-02-01T00:14:38;9.07;;;6.30;;
7501;SDS011;3792;47.740;7.606;2023-02-01T00:17:05;7.33;;;5.57;;
7501;SDS011;3792;47.740;7.606;2023-02-01T00:19:33;6.37;;;5.30;;
7501;SDS011;3792;47.740;7.606;2023-02-01T00:22:00;6.87;;;5.10;;
7501;SDS011;3792;47.740;7.606;2023-02-01T00:24:27;6.00;;;4.90;;
7501;SDS011;3792;47.740;7.606;2023-02-01T00:26:54;6.23;;;5.27;;
7501;SDS011;3792;47.740;7.606;2023-02-01T00:29:22;8.20;;;5.60;;
7501;SDS011;3792;47.740;7.606;2023-02-01T00:31:51;7.07;;;5.30;;
7501;SDS011;3792;47.740;7.606;2023-02-01T00:34:18;9.73;;;5.80;;
7501;SDS011;3792;47.740;7.606;2023-02-01T00:36:46;6.87;;;5.10;;
7501;SDS011;3792;47.740;7.606;2023-02-01T00:39:13;11.53;;;4.87;;
7501;SDS011;3792;47.740;7.606;2023-02-01T00:41:41;5.83;;;5.23;;
7501;SDS011;3792;47.740;7.606;2023-02-01T00:44:08;7.27;;;5.30;;
7501;SDS011;3792;47.740;7.606;2023-02-01T00:46:35;7.53;;;5.17;;
7501;SDS011;3792;47.740;7.606;2023-02-01T00:49:04;8.23;;;5.33;;
7501;SDS011;3792;47.740;7.606;2023-02-01T00:51:32;8.13;;;4.93;;
7501;SDS011;3792;47.740;7.606;2023-02-01T00:53:59;8.20;;;5.07;;
7501;SDS011;3792;47.740;7.606;2023-02-01T00:56:26;7.63;;;5.30;;
7501;SDS011;3792;47.740;7.606;2023-02-01T00:58:53;8.10;;;5.50;;
7501;SDS011;3792;47.740;7.606;2023-02-01T01:01:21;6.53;;;5.50;;
7501;SDS011;3792;47.740;7.606;2023-02-01T01:03:50;8.73;;;5.20;;
7501;SDS011;3792;47.740;7.606;2023-02-01T01:06:21;6.47;;;5.40;;
7501;SDS011;3792;47.740;7.606;2023-02-01T01:08:50;7.73;;;5.37;;
7501;SDS011;3792;47.740;7.606;2023-02-01T01:11:19;8.07;;;5.77;;
7501;SDS011;3792;47.740;7.606;2023-02-01T01:13:48;8.57;;;5.23;;
7501;SDS011;3792;47.740;7.606;2023-02-01T01:16:16;7.33;;;5.20;;
7501;SDS011;3792;47.740;7.606;2023-02-01T01:18:44;8.07;;;5.30;;
7501;SDS011;3792;47.740;7.606;2023-02-01T01:21:13;6.23;;;5.43;;
7501;SDS011;3792;47.740;7.606;2023-02-01T01:23:42;7.43;;;5.60;;
7501;SDS011;3792;47.740;7.606;2023-02-01T01:26:10;9.27;;;6.17;;
7501;SDS011;3792;47.740;7.606;2023-02-01T01:28:40;10.63;;;5.90;;
7501;SDS011;3792;47.740;7.606;2023-02-01T01:31:08;8.17;;;6.00;;
7501;SDS011;3792;47.740;7.606;2023-02-01T01:33:35;7.10;;;5.60;;
7501;SDS011;3792;47.740;7.606;2023-02-01T01:36:04;9.07;;;6.10;;
7501;SDS011;3792;47.740;7.606;2023-02-01T01:38:32;9.10;;;5.90;;
7501;SDS011;3792;47.740;7.606;2023-02-01T01:41:00;9.33;;;5.63;;
7501;SDS011;3792;47.740;7.606;2023-02-01T01:46:15;9.60;;;5.87;;
7501;SDS011;3792;47.740;7.606;2023-02-01T01:48:43;10.00;;;5.90;;
7501;SDS011;3792;47.740;7.606;2023-02-01T01:51:11;7.27;;;5.87;;
7501;SDS011;3792;47.740;7.606;2023-02-01T01:53:42;10.10;;;6.57;;
7501;SDS011;3792;47.740;7.606;2023-02-01T01:56:13;8.43;;;6.27;;
7501;SDS011;3792;47.740;7.606;2023-02-01T01:58:40;8.43;;;5.87;;
7501;SDS011;3792;47.740;7.606;2023-02-01T02:01:08;9.93;;;5.97;;
7501;SDS011;3792;47.740;7.606;2023-02-01T02:03:37;8.13;;;6.10;;
7501;SDS011;3792;47.740;7.606;2023-02-01T02:06:09;7.83;;;5.63;;
7501;SDS011;3792;47.740;7.606;2023-02-01T02:08:41;9.47;;;5.47;;
7501;SDS011;3792;47.740;7.606;2023-02-01T02:11:09;10.13;;;6.27;;
7501;SDS011;3792;47.740;7.606;2023-02-01T02:13:42;10.47;;;6.17;;
7501;SDS011;3792;47.740;7.606;2023-02-01T02:19:08;6.77;;;5.07;;
7501;SDS011;3792;47.740;7.606;2023-02-01T02:21:56;9.03;;;5.87;;
7501;SDS011;3792;47.740;7.606;2023-02-01T02:24:56;6.77;;;5.67;;
7501;SDS011;3792;47.740;7.606;2023-02-01T02:27:44;8.47;;;6.03;;
7501;SDS011;3792;47.740;7.606;2023-02-01T02:30:22;8.00;;;6.13;;
7501;SDS011;3792;47.740;7.606;2023-02-01T02:36:17;8.47;;;5.73;;
7501;SDS011;3792;47.740;7.606;2023-02-01T02:38:56;8.57;;;5.87;;
7501;SDS011;3792;47.740;7.606;2023-02-01T02:41:32;10.97;;;6.13;;
7501;SDS011;3792;47.740;7.606;2023-02-01T02:44:24;9.37;;;6.23;;
7501;SDS011;3792;47.740;7.606;2023-02-01T02:47:16;8.07;;;6.43;;
7501;SDS011;3792;47.740;7.606;2023-02-01T02:49:55;8.93;;;5.80;;
7501;SDS011;3792;47.740;7.606;2023-02-01T02:52:50;8.87;;;6.17;;
7501;SDS011;3792;47.740;7.606;2023-02-01T02:55:37;9.93;;;6.23;;
7501;SDS011;3792;47.740;7.606;2023-02-01T02:58:05;11.10;;;6.03;;
7501;SDS011;3792;47.740;7.606;2023-02-01T03:00:54;9.60;;;6.37;;
7501;SDS011;3792;47.740;7.606;2023-02-01T03:03:40;8.37;;;5.97;;
7501;SDS011;3792;47.740;7.606;2023-02-01T03:06:26;10.23;;;6.17;;
7501;SDS011;3792;47.740;7.606;2023-02-01T03:08:53;9.53;;;6.80;;
7501;SDS011;3792;47.740;7.606;2023-02-01T03:11:23;9.43;;;6.53;;
7501;SDS011;3792;47.740;7.606;2023-02-01T03:14:12;10.63;;;6.77;;
7501;SDS011;3792;47.740;7.606;2023-02-01T03:16:41;9.40;;;6.00;;
7501;SDS011;3792;47.740;7.606;2023-02-01T03:19:14;9.37;;;6.10;;
7501;SDS011;3792;47.740;7.606;2023-02-01T03:21:46;11.70;;;6.83;;
7501;SDS011;3792;47.740;7.606;2023-02-01T03:24:17;8.90;;;6.27;;
7501;SDS011;3792;47.740;7.606;2023-02-01T03:26:58;10.27;;;6.70;;
7501;SDS011;3792;47.740;7.606;2023-02-01T03:29:30;8.77;;;6.33;;
7501;SDS011;3792;47.740;7.606;2023-02-01T03:32:04;9.40;;;6.57;;
7501;SDS011;3792;47.740;7.606;2023-02-01T03:34:31;10.57;;;6.47;;
7501;SDS011;3792;47.740;7.606;2023-02-01T03:37:01;9.13;;;6.17;;
7501;SDS011;3792;47.740;7.606;2023-02-01T03:39:32;9.53;;;6.60;;
7501;SDS011;3792;47.740;7.606;2023-02-01T03:42:03;9.67;;;6.07;;
7501;SDS011;3792;47.740;7.606;2023-02-01T03:44:35;10.90;;;6.23;;
7501;SDS011;3792;47.740;7.606;2023-02-01T03:47:07;8.70;;;5.73;;
7501;SDS011;3792;47.740;7.606;2023-02-01T03:49:38;9.93;;;6.10;;
7501;SDS011;3792;47.740;7.606;2023-02-01T03:52:10;7.30;;;5.63;;
7501;SDS011;3792;47.740;7.606;2023-02-01T03:54:40;10.43;;;6.27;;
7501;SDS011;3792;47.740;7.606;2023-02-01T03:57:09;9.10;;;5.47;;
7501;SDS011;3792;47.740;7.606;2023-02-01T03:59:39;7.27;;;6.00;;
7501;SDS011;3792;47.740;7.606;2023-02-01T04:02:06;12.70;;;5.83;;
7501;SDS011;3792;47.740;7.606;2023-02-01T04:04:33;7.27;;;5.47;;
7501;SDS011;3792;47.740;7.606;2023-02-01T04:07:01;9.13;;;5.80;;
7501;SDS011;3792;47.740;7.606;2023-02-01T04:09:30;6.03;;;4.97;;
7501;SDS011;3792;47.740;7.606;2023-02-01T04:11:57;8.63;;;5.83;;
7501;SDS011;3792;47.740;7.606;2023-02-01T04:14:24;8.70;;;5.33;;
7501;SDS011;3792;47.740;7.606;2023-02-01T04:16:51;9.73;;;6.30;;
7501;SDS011;3792;47.740;7.606;2023-02-01T04:19:19;9.57;;;6.20;;
7501;SDS011;3792;47.740;7.606;2023-02-01T04:21:46;6.20;;;4.73;;
7501;SDS011;3792;47.740;7.606;2023-02-01T04:24:13;10.03;;;6.00;;
7501;SDS011;3792;47.740;7.606;2023-02-01T04:26:41;9.87;;;5.60;;
7501;SDS011;3792;47.740;7.606;2023-02-01T04:29:08;7.60;;;5.70;;
7501;SDS011;3792;47.740;7.606;2023-02-01T04:31:36;7.77;;;5.43;;
7501;SDS011;3792;47.740;7.606;2023-02-01T04:34:03;6.80;;;5.60;;
7501;SDS011;3792;47.740;7.606;2023-02-01T04:36:30;7.10;;;4.87;;
7501;SDS011;3792;47.740;7.606;2023-02-01T04:38:57;7.70;;;5.13;;
7501;SDS011;3792;47.740;7.606;2023-02-01T04:41:24;6.80;;;5.20;;
7501;SDS011;3792;47.740;7.606;2023-02-01T04:43:52;7.87;;;6.00;;
7501;SDS011;3792;47.740;7.606;2023-02-01T04:46:19;9.10;;;5.63;;
7501;SDS011;3792;47.740;7.606;2023-02-01T04:48:47;7.53;;;5.40;;
7501;SDS011;3792;47.740;7.606;2023-02-01T04:51:14;11.17;;;5.87;;
7501;SDS011;3792;47.740;7.606;2023-02-01T04:53:41;11.73;;;5.40;;
7501;SDS011;3792;47.740;7.606;2023-02-01T04:56:08;8.33;;;5.37;;
7501;SDS011;3792;47.740;7.606;2023-02-01T04:58:35;8.03;;;6.10;;
7501;SDS011;3792;47.740;7.606;2023-02-01T05:01:04;13.00;;;5.67;;
7501;SDS011;3792;47.740;7.606;2023-02-01T05:03:31;7.43;;;5.30;;
7501;SDS011;3792;47.740;7.606;2023-02-01T05:05:59;7.70;;;5.23;;
7501;SDS011;3792;47.740;7.606;2023-02-01T05:08:26;8.70;;;5.33;;
7501;SDS011;3792;47.740;7.606;2023-02-01T05:10:54;6.70;;;5.23;;
7501;SDS011;3792;47.740;7.606;2023-02-01T05:13:21;7.53;;;5.63;;
7501;SDS011;3792;47.740;7.606;2023-02-01T05:16:07;6.47;;;4.80;;
7501;SDS011;3792;47.740;7.606;2023-02-01T05:18:34;10.63;;;5.70;;
7501;SDS011;3792;47.740;7.606;2023-02-01T05:21:01;6.77;;;4.87;;
7501;SDS011;3792;47.740;7.606;2023-02-01T05:23:29;6.90;;;5.07;;
7501;SDS011;3792;47.740;7.606;2023-02-01T05:25:58;11.67;;;6.23;;
7501;SDS011;3792;47.740;7.606;2023-02-01T05:28:26;8.57;;;5.50;;
7501;SDS011;3792;47.740;7.606;2023-02-01T05:30:53;6.60;;;4.90;;
7501;SDS011;3792;47.740;7.606;2023-02-01T05:33:22;7.73;;;4.67;;
7501;SDS011;3792;47.740;7.606;2023-02-01T05:35:49;8.37;;;5.03;;
7501;SDS011;3792;47.740;7.606;2023-02-01T05:38:16;7.03;;;5.27;;
7501;SDS011;3792;47.740;7.606;2023-02-01T05:40:43;9.77;;;5.13;;
7501;SDS011;3792;47.740;7.606;2023-02-01T05:43:14;5.23;;;4.50;;
7501;SDS011;3792;47.740;7.606;2023-02-01T05:45:42;6.67;;;4.50;;
7501;SDS011;3792;47.740;7.606;2023-02-01T05:48:09;5.67;;;4.10;;
7501;SDS011;3792;47.740;7.606;2023-02-01T05:50:37;7.63;;;5.07;;
7501;SDS011;3792;47.740;7.606;2023-02-01T05:53:05;6.67;;;4.60;;
7501;SDS011;3792;47.740;7.606;2023-02-01T05:55:32;8.87;;;5.03;;
7501;SDS011;3792;47.740;7.606;2023-02-01T05:57:59;8.53;;;4.93;;
7501;SDS011;3792;47.740;7.606;2023-02-01T06:00:26;9.87;;;5.03;;
7501;SDS011;3792;47.740;7.606;2023-02-01T06:02:53;8.37;;;4.80;;
7501;SDS011;3792;47.740;7.606;2023-02-01T06:05:21;7.93;;;4.63;;
7501;SDS011;3792;47.740;7.606;2023-02-01T06:07:49;7.63;;;4.60;;
7501;SDS011;3792;47.740;7.606;2023-02-01T06:10:16;9.83;;;4.63;;
7501;SDS011;3792;47.740;7.606;2023-02-01T06:12:44;5.23;;;4.37;;
7501;SDS011;3792;47.740;7.606;2023-02-01T06:15:11;7.23;;;4.80;;
7501;SDS011;3792;47.740;7.606;2023-02-01T06:17:40;7.23;;;4.60;;
7501;SDS011;3792;47.740;7.606;2023-02-01T06:20:09;6.00;;;4.10;;
7501;SDS011;3792;47.740;7.606;2023-02-01T06:22:37;8.03;;;4.60;;
7501;SDS011;3792;47.740;7.606;2023-02-01T06:25:07;8.80;;;4.40;;
7501;SDS011;3792;47.740;7.606;2023-02-01T06:27:35;5.93;;;4.67;;
7501;SDS011;3792;47.740;7.606;2023-02-01T06:30:05;8.43;;;4.77;;
7501;SDS011;3792;47.740;7.606;2023-02-01T06:32:32;7.53;;;4.03;;
7501;SDS011;3792;47.740;7.606;2023-02-01T06:34:59;11.13;;;5.07;;
7501;SDS011;3792;47.740;7.606;2023-02-01T06:37:27;5.33;;;3.67;;
7501;SDS011;3792;47.740;7.606;2023-02-01T06:39:54;5.23;;;3.40;;
7501;SDS011;3792;47.740;7.606;2023-02-01T06:42:23;7.07;;;3.53;;
7501;SDS011;3792;47.740;7.606;2023-02-01T06:44:50;5.30;;;3.27;;
7501;SDS011;3792;47.740;7.606;2023-02-01T06:47:17;5.20;;;3.50;;
7501;SDS011;3792;47.740;7.606;2023-02-01T06:49:44;4.40;;;2.90;;
7501;SDS011;3792;47.740;7.606;2023-02-01T06:52:11;7.30;;;3.97;;
7501;SDS011;3792;47.740;7.606;2023-02-01T06:54:38;8.27;;;3.50;;
7501;SDS011;3792;47.740;7.606;2023-02-01T06:57:05;6.07;;;3.40;;
7501;SDS011;3792;47.740;7.606;2023-02-01T06:59:34;4.47;;;3.70;;
7501;SDS011;3792;47.740;7.606;2023-02-01T07:02:01;5.47;;;3.90;;
7501;SDS011;3792;47.740;7.606;2023-02-01T07:04:28;5.37;;;2.70;;
7501;SDS011;3792;47.740;7.606;2023-02-01T07:06:55;5.60;;;3.13;;
7501;SDS011;3792;47.740;7.606;2023-02-01T07:09:22;5.27;;;3.10;;
7501;SDS011;3792;47.740;7.606;2023-02-01T07:11:49;5.73;;;4.03;;
7501;SDS011;3792;47.740;7.606;2023-02-01T07:14:16;7.53;;;4.30;;
7501;SDS011;3792;47.740;7.606;2023-02-01T07:16:45;6.30;;;3.43;;
7501;SDS011;3792;47.740;7.606;2023-02-01T07:19:12;6.73;;;3.40;;
7501;SDS011;3792;47.740;7.606;2023-02-01T07:21:39;5.03;;;3.40;;
7501;SDS011;3792;47.740;7.606;2023-02-01T07:24:06;4.37;;;3.30;;
7501;SDS011;3792;47.740;7.606;2023-02-01T07:26:33;5.53;;;3.17;;
7501;SDS011;3792;47.740;7.606;2023-02-01T07:29:00;5.90;;;3.70;;
7501;SDS011;3792;47.740;7.606;2023-02-01T07:31:27;4.57;;;3.43;;
7501;SDS011;3792;47.740;7.606;2023-02-01T07:33:55;3.83;;;2.80;;
7501;SDS011;3792;47.740;7.606;2023-02-01T07:36:23;4.50;;;2.83;;
7501;SDS011;3792;47.740;7.606;2023-02-01T07:38:50;5.10;;;3.20;;
7501;SDS011;3792;47.740;7.606;2023-02-01T07:41:18;4.40;;;3.30;;
7501;SDS011;3792;47.740;7.606;2023-02-01T07:43:45;3.27;;;2.90;;
7501;SDS011;3792;47.740;7.606;2023-02-01T07:46:12;5.57;;;2.90;;
7501;SDS011;3792;47.740;7.606;2023-02-01T07:48:40;4.73;;;3.20;;
7501;SDS011;3792;47.740;7.606;2023-02-01T07:51:10;5.77;;;3.73;;
7501;SDS011;3792;47.740;7.606;2023-02-01T07:53:38;4.50;;;3.67;;
7501;SDS011;3792;47.740;7.606;2023-02-01T07:56:09;4.47;;;3.47;;
7501;SDS011;3792;47.740;7.606;2023-02-01T07:58:38;4.83;;;3.50;;
7501;SDS011;3792;47.740;7.606;2023-02-01T08:01:05;2.90;;;2.70;;
7501;SDS011;3792;47.740;7.606;2023-02-01T08:03:46;4.80;;;2.90;;
7501;SDS011;3792;47.740;7.606;2023-02-01T08:06:15;4.60;;;3.30;;
7501;SDS011;3792;47.740;7.606;2023-02-01T08:08:42;3.70;;;2.87;;
7501;SDS011;3792;47.740;7.606;2023-02-01T08:11:10;3.73;;;2.67;;
7501;SDS011;3792;47.740;7.606;2023-02-01T08:13:37;3.67;;;2.20;;
7501;SDS011;3792;47.740;7.606;2023-02-01T08:16:05;4.87;;;2.77;;
7501;SDS011;3792;47.740;7.606;2023-02-01T08:18:34;3.73;;;2.53;;
7501;SDS011;3792;47.740;7.606;2023-02-01T08:21:05;3.40;;;2.67;;
7501;SDS011;3792;47.740;7.606;2023-02-01T08:23:35;3.30;;;2.57;;
7501;SDS011;3792;47.740;7.606;2023-02-01T08:26:09;4.97;;;2.73;;
7501;SDS011;3792;47.740;7.606;2023-02-01T08:28:39;6.27;;;3.07;;
7501;SDS011;3792;47.740;7.606;2023-02-01T08:31:07;3.57;;;2.93;;
7501;SDS011;3792;47.740;7.606;2023-02-01T08:33:36;4.53;;;2.63;;
7501;SDS011;3792;47.740;7.606;2023-02-01T08:36:04;3.33;;;2.60;;
7501;SDS011;3792;47.740;7.606;2023-02-01T08:38:32;2.83;;;2.50;;
7501;SDS011;3792;47.740;7.606;2023-02-01T08:41:05;3.43;;;2.50;;
7501;SDS011;3792;47.740;7.606;2023-02-01T08:43:33;4.67;;;3.20;;
7501;SDS011;3792;47.740;7.606;2023-02-01T08:46:01;4.87;;;3.40;;
7501;SDS011;3792;47.740;7.606;2023-02-01T08:48:28;5.13;;;3.87;;
7501;SDS011;3792;47.740;7.606;2023-02-01T08:50:56;4.63;;;3.40;;
7501;SDS011;3792;47.740;7.606;2023-02-01T08:53:24;3.87;;;2.90;;
7501;SDS011;3792;47.740;7.606;2023-02-01T08:55:51;5.80;;;3.17;;
7501;SDS011;3792;47.740;7.606;2023-02-01T08:58:19;4.60;;;2.80;;
7501;SDS011;3792;47.740;7.606;2023-02-01T09:00:46;3.30;;;2.47;;
7501;SDS011;3792;47.740;7.606;2023-02-01T09:03:14;7.13;;;3.53;;
7501;SDS011;3792;47.740;7.606;2023-02-01T09:05:42;4.03;;;2.10;;
7501;SDS011;3792;47.740;7.606;2023-02-01T09:08:10;2.73;;;2.53;;
7501;SDS011;3792;47.740;7.606;2023-02-01T09:10:39;5.60;;;3.07;;
7501;SDS011;3792;47.740;7.606;2023-02-01T09:13:07;4.43;;;2.37;;
7501;SDS011;3792;47.740;7.606;2023-02-01T09:15:36;3.73;;;2.60;;
7501;SDS011;3792;47.740;7.606;2023-02-01T09:18:03;4.60;;;2.90;;
7501;SDS011;3792;47.740;7.606;2023-02-01T09:20:30;4.10;;;2.90;;
7501;SDS011;3792;47.740;7.606;2023-02-01T09:22:57;3.90;;;2.70;;
7501;SDS011;3792;47.740;7.606;2023-02-01T09:25:25;4.67;;;2.90;;
7501;SDS011;3792;47.740;7.606;2023-02-01T09:27:52;4.57;;;2.80;;
7501;SDS011;3792;47.740;7.606;2023-02-01T09:30:19;3.33;;;2.60;;
7501;SDS011;3792;47.740;7.606;2023-02-01T09:32:48;6.27;;;3.43;;
7501;SDS011;3792;47.740;7.606;2023-02-01T09:35:15;3.53;;;3.13;;
7501;SDS011;3792;47.740;7.606;2023-02-01T09:37:42;4.23;;;2.53;;
7501;SDS011;3792;47.740;7.606;2023-02-01T09:40:10;5.93;;;3.20;;
7501;SDS011;3792;47.740;7.606;2023-02-01T09:42:47;3.60;;;2.60;;
7501;SDS011;3792;47.740;7.606;2023-02-01T09:45:38;4.97;;;2.87;;
7501;SDS011;3792;47.740;7.606;2023-02-01T09:48:12;3.87;;;2.83;;
7501;SDS011;3792;47.740;7.606;2023-02-01T09:50:44;4.83;;;2.73;;
7501;SDS011;3792;47.740;7.606;2023-02-01T09:53:16;3.10;;;2.80;;
7501;SDS011;3792;47.740;7.606;2023-02-01T09:55:48;5.07;;;2.90;;
7501;SDS011;3792;47.740;7.606;2023-02-01T09:58:18;4.03;;;2.60;;
7501;SDS011;3792;47.740;7.606;2023-02-01T10:00:51;3.93;;;3.00;;
7501;SDS011;3792;47.740;7.606;2023-02-01T10:03:21;4.07;;;3.00;;
7501;SDS011;3792;47.740;7.606;2023-02-01T10:06:09;4.20;;;2.97;;
7501;SDS011;3792;47.740;7.606;2023-02-01T10:08:56;16.97;;;6.90;;
7501;SDS011;3792;47.740;7.606;2023-02-01T10:11:47;6.70;;;3.00;;
7501;SDS011;3792;47.740;7.606;2023-02-01T10:17:16;4.47;;;2.60;;
7501;SDS011;3792;47.740;7.606;2023-02-01T10:19:55;6.90;;;3.30;;
7501;SDS011;3792;47.740;7.606;2023-02-01T10:22:31;5.77;;;3.00;;
7501;SDS011;3792;47.740;7.606;2023-02-01T10:25:08;5.33;;;3.07;;
7501;SDS011;3792;47.740;7.606;2023-02-01T10:27:44;5.90;;;3.30;;
7501;SDS011;3792;47.740;7.606;2023-02-01T10:30:16;7.70;;;3.50;;
7501;SDS011;3792;47.740;7.606;2023-02-01T10:32:46;6.07;;;2.63;;
7501;SDS011;3792;47.740;7.606;2023-02-01T10:35:18;7.97;;;3.27;;
7501;SDS011;3792;47.740;7.606;2023-02-01T10:37:50;7.67;;;3.63;;
7501;SDS011;3792;47.740;7.606;2023-02-01T10:40:19;10.60;;;3.37;;
7501;SDS011;3792;47.740;7.606;2023-02-01T10:42:48;9.73;;;3.10;;
7501;SDS011;3792;47.740;7.606;2023-02-01T10:45:18;6.43;;;3.50;;
7501;SDS011;3792;47.740;7.606;2023-02-01T10:47:47;5.67;;;3.67;;
7501;SDS011;3792;47.740;7.606;2023-02-01T10:50:30;8.33;;;3.60;;
7501;SDS011;3792;47.740;7.606;2023-02-01T10:53:04;9.03;;;3.87;;
7501;SDS011;3792;47.740;7.606;2023-02-01T10:55:38;7.40;;;3.70;;
7501;SDS011;3792;47.740;7.606;2023-02-01T10:58:13;7.53;;;4.23;;
7501;SDS011;3792;47.740;7.606;2023-02-01T11:00:44;4.90;;;2.80;;
7501;SDS011;3792;47.740;7.606;2023-02-01T11:03:19;8.17;;;3.40;;
7501;SDS011;3792;47.740;7.606;2023-02-01T11:06:08;8.47;;;3.60;;
7501;SDS011;3792;47.740;7.606;2023-02-01T11:08:48;8.67;;;3.40;;
7501;SDS011;3792;47.740;7.606;2023-02-01T11:11:17;7.73;;;3.73;;
7501;SDS011;3792;47.740;7.606;2023-02-01T11:13:45;8.07;;;2.80;;
7501;SDS011;3792;47.740;7.606;2023-02-01T11:16:19;6.37;;;2.60;;
7501;SDS011;3792;47.740;7.606;2023-02-01T11:18:46;11.30;;;3.47;;
7501;SDS011;3792;47.740;7.606;2023-02-01T11:21:22;6.93;;;2.97;;
7501;SDS011;3792;47.740;7.606;2023-02-01T11:23:49;6.20;;;3.00;;
7501;SDS011;3792;47.740;7.606;2023-02-01T11:26:20;4.33;;;3.13;;
7501;SDS011;3792;47.740;7.606;2023-02-01T11:28:53;9.30;;;3.47;;
7501;SDS011;3792;47.740;7.606;2023-02-01T11:31:24;7.20;;;2.90;;
7501;SDS011;3792;47.740;7.606;2023-02-01T11:33:53;9.53;;;3.57;;
7501;SDS011;3792;47.740;7.606;2023-02-01T11:36:33;7.57;;;3.47;;
7501;SDS011;3792;47.740;7.606;2023-02-01T11:39:20;8.50;;;3.10;;
7501;SDS011;3792;47.740;7.606;2023-02-01T11:41:55;6.37;;;3.50;;
7501;SDS011;3792;47.740;7.606;2023-02-01T11:44:29;12.00;;;3.43;;
7501;SDS011;3792;47.740;7.606;2023-02-01T11:49:49;10.53;;;3.60;;
7501;SDS011;3792;47.740;7.606;2023-02-01T11:52:29;9.77;;;4.27;;
7501;SDS011;3792;47.740;7.606;2023-02-01T11:55:13;7.50;;;3.50;;
7501;SDS011;3792;47.740;7.606;2023-02-01T11:57:54;8.03;;;2.90;;
7501;SDS011;3792;47.740;7.606;2023-02-01T12:00:39;5.80;;;3.47;;
7501;SDS011;3792;47.740;7.606;2023-02-01T12:06:28;8.30;;;3.80;;
7501;SDS011;3792;47.740;7.606;2023-02-01T12:09:09;7.30;;;3.00;;
7501;SDS011;3792;47.740;7.606;2023-02-01T12:11:47;9.00;;;3.13;;
7501;SDS011;3792;47.740;7.606;2023-02-01T12:14:24;11.03;;;3.57;;
7501;SDS011;3792;47.740;7.606;2023-02-01T12:17:08;8.53;;;3.70;;
7501;SDS011;3792;47.740;7.606;2023-02-01T12:20:02;14.13;;;3.97;;
7501;SDS011;3792;47.740;7.606;2023-02-01T12:22:44;10.40;;;3.33;;
7501;SDS011;3792;47.740;7.606;2023-02-01T12:25:26;8.43;;;3.47;;
7501;SDS011;3792;47.740;7.606;2023-02-01T12:28:14;8.77;;;3.60;;
7501;SDS011;3792;47.740;7.606;2023-02-01T12:33:43;12.77;;;4.17;;
7501;SDS011;3792;47.740;7.606;2023-02-01T12:36:21;10.43;;;3.90;;
7501;SDS011;3792;47.740;7.606;2023-02-01T12:39:00;9.50;;;3.87;;
7501;SDS011;3792;47.740;7.606;2023-02-01T12:41:45;8.77;;;3.67;;
7501;SDS011;3792;47.740;7.606;2023-02-01T12:44:19;9.70;;;4.10;;
7501;SDS011;3792;47.740;7.606;2023-02-01T12:46:56;7.70;;;3.40;;
7501;SDS011;3792;47.740;7.606;2023-02-01T12:49:28;7.97;;;3.73;;
7501;SDS011;3792;47.740;7.606;2023-02-01T12:52:06;7.73;;;3.40;;
7501;SDS011;3792;47.740;7.606;2023-02-01T12:54:38;11.73;;;3.83;;
7501;SDS011;3792;47.740;7.606;2023-02-01T12:57:16;12.63;;;3.67;;
7501;SDS011;3792;47.740;7.606;2023-02-01T12:59:47;8.87;;;3.73;;
7501;SDS011;3792;47.740;7.606;2023-02-01T13:02:23;8.63;;;3.50;;
7501;SDS011;3792;47.740;7.606;2023-02-01T13:04:59;5.93;;;3.00;;
7501;SDS011;3792;47.740;7.606;2023-02-01T13:07:34;10.13;;;3.30;;
7501;SDS011;3792;47.740;7.606;2023-02-01T13:10:05;10.33;;;3.30;;
7501;SDS011;3792;47.740;7.606;2023-02-01T13:12:44;11.80;;;3.03;;
7501;SDS011;3792;47.740;7.606;2023-02-01T13:15:19;6.73;;;2.97;;
7501;SDS011;3792;47.740;7.606;2023-02-01T13:17:51;10.73;;;3.50;;
7501;SDS011;3792;47.740;7.606;2023-02-01T13:20:21;11.07;;;3.43;;
7501;SDS011;3792;47.740;7.606;2023-02-01T13:22:54;10.67;;;3.60;;
7501;SDS011;3792;47.740;7.606;2023-02-01T13:25:29;9.30;;;3.37;;
7501;SDS011;3792;47.740;7.606;2023-02-01T13:28:02;9.70;;;3.10;;
7501;SDS011;3792;47.740;7.606;2023-02-01T13:30:36;12.57;;;3.63;;
7501;SDS011;3792;47.740;7.606;2023-02-01T13:33:23;16.53;;;4.13;;
7501;SDS011;3792;47.740;7.606;2023-02-01T13:36:10;11.87;;;3.93;;
7501;SDS011;3792;47.740;7.606;2023-02-01T13:39:12;10.13;;;3.33;;
7501;SDS011;3792;47.740;7.606;2023-02-01T13:42:00;9.33;;;2.80;;
7501;SDS011;3792;47.740;7.606;2023-02-01T13:44:32;9.63;;;3.30;;
7501;SDS011;3792;47.740;7.606;2023-02-01T13:47:08;10.20;;;4.20;;
7501;SDS011;3792;47.740;7.606;2023-02-01T13:49:43;14.60;;;3.77;;
7501;SDS011;3792;47.740;7.606;2023-02-01T13:52:21;10.27;;;3.97;;
7501;SDS011;3792;47.740;7.606;2023-02-01T13:55:00;10.50;;;3.80;;
7501;SDS011;3792;47.740;7.606;2023-02-01T13:57:35;12.53;;;3.93;;
7501;SDS011;3792;47.740;7.606;2023-02-01T14:00:22;12.27;;;3.73;;
7501;SDS011;3792;47.740;7.606;2023-02-01T14:08:43;12.77;;;3.10;;
7501;SDS011;3792;47.740;7.606;2023-02-01T14:11:34;11.10;;;2.67;;
7501;SDS011;3792;47.740;7.606;2023-02-01T14:26:10;14.10;;;5.93;;
7501;SDS011;3792;47.740;7.606;2023-02-01T14:28:52;18.30;;;5.40;;
7501;SDS011;3792;47.740;7.606;2023-02-01T14:34:17;18.00;;;5.33;;
7501;SDS011;3792;47.740;7.606;2023-02-01T14:36:48;24.87;;;12.63;;
7501;SDS011;3792;47.740;7.606;2023-02-01T14:39:26;9.87;;;3.70;;
7501;SDS011;3792;47.740;7.606;2023-02-01T14:42:04;11.47;;;4.43;;
7501;SDS011;3792;47.740;7.606;2023-02-01T14:44:40;18.57;;;6.47;;
7501;SDS011;3792;47.740;7.606;2023-02-01T14:53:09;10.53;;;3.30;;
7501;SDS011;3792;47.740;7.606;2023-02-01T14:55:44;16.40;;;4.67;;
7501;SDS011;3792;47.740;7.606;2023-02-01T14:58:15;7.40;;;2.73;;
7501;SDS011;3792;47.740;7.606;2023-02-01T15:00:47;10.93;;;3.67;;
7501;SDS011;3792;47.740;7.606;2023-02-01T15:03:32;10.03;;;3.23;;
7501;SDS011;3792;47.740;7.606;2023-02-01T15:06:14;9.30;;;3.50;;
7501;SDS011;3792;47.740;7.606;2023-02-01T15:08:56;9.93;;;3.40;;
7501;SDS011;3792;47.740;7.606;2023-02-01T15:11:27;8.73;;;3.50;;
7501;SDS011;3792;47.740;7.606;2023-02-01T15:13:54;9.87;;;4.23;;
7501;SDS011;3792;47.740;7.606;2023-02-01T15:16:22;13.43;;;4.50;;
7501;SDS011;3792;47.740;7.606;2023-02-01T15:18:50;11.57;;;4.27;;
7501;SDS011;3792;47.740;7.606;2023-02-01T15:21:43;8.83;;;3.23;;
7501;SDS011;3792;47.740;7.606;2023-02-01T15:24:12;9.80;;;3.30;;
7501;SDS011;3792;47.740;7.606;2023-02-01T15:26:40;8.30;;;3.57;;
7501;SDS011;3792;47.740;7.606;2023-02-01T15:29:11;10.07;;;4.13;;
7501;SDS011;3792;47.740;7.606;2023-02-01T15:31:39;12.13;;;4.07;;
7501;SDS011;3792;47.740;7.606;2023-02-01T15:34:09;8.67;;;3.90;;
7501;SDS011;3792;47.740;7.606;2023-02-01T15:36:36;12.27;;;3.20;;
7501;SDS011;3792;47.740;7.606;2023-02-01T15:39:21;8.00;;;3.17;;
7501;SDS011;3792;47.740;7.606;2023-02-01T15:42:01;9.53;;;2.97;;
7501;SDS011;3792;47.740;7.606;2023-02-01T15:44:40;9.87;;;4.20;;
7501;SDS011;3792;47.740;7.606;2023-02-01T15:47:12;5.40;;;2.90;;
7501;SDS011;3792;47.740;7.606;2023-02-01T15:49:41;9.97;;;3.53;;
7501;SDS011;3792;47.740;7.606;2023-02-01T15:52:16;6.83;;;3.40;;
7501;SDS011;3792;47.740;7.606;2023-02-01T15:54:49;13.10;;;5.47;;
7501;SDS011;3792;47.740;7.606;2023-02-01T15:57:20;8.93;;;3.57;;
7501;SDS011;3792;47.740;7.606;2023-02-01T15:59:55;9.60;;;3.63;;
7501;SDS011;3792;47.740;7.606;2023-02-01T16:02:28;12.77;;;3.73;;
7501;SDS011;3792;47.740;7.606;2023-02-01T16:04:59;8.03;;;3.10;;
7501;SDS011;3792;47.740;7.606;2023-02-01T16:07:29;15.80;;;4.10;;
7501;SDS011;3792;47.740;7.606;2023-02-01T16:10:00;5.70;;;3.53;;
7501;SDS011;3792;47.740;7.606;2023-02-01T16:12:34;8.53;;;3.17;;
7501;SDS011;3792;47.740;7.606;2023-02-01T16:15:12;13.23;;;3.90;;
7501;SDS011;3792;47.740;7.606;2023-02-01T16:17:41;8.63;;;3.50;;
7501;SDS011;3792;47.740;7.606;2023-02-01T16:20:09;10.37;;;2.90;;
7501;SDS011;3792;47.740;7.606;2023-02-01T16:22:37;15.10;;;4.70;;
7501;SDS011;3792;47.740;7.606;2023-02-01T16:25:05;13.93;;;4.27;;
7501;SDS011;3792;47.740;7.606;2023-02-01T16:27:34;8.13;;;4.00;;
7501;SDS011;3792;47.740;7.606;2023-02-01T16:30:02;10.13;;;4.23;;